Time;durP1;ratioP1;P1;durP2;ratioP2;P2;SDS_P1;SDS_P2;PMS_P1;PMS_P2;Temp;Humidity;BMP_temperature;BMP_pressure;BME280_temperature;BME280_humidity;BME280_pressure;Samples;Min_cycle;Max_cycle;Signal;HPM_P1;HPM_P2
2021/07/13 00:01:49;;;;;;;6.13;3.05;;;;;;;;;;5006217;28;20025;-70
2021/07/13 00:04:16;;;;;;;11.65;4.13;;;;;;;;;;5007713;28;20037;-70
2021/07/13 00:06:43;;;;;;;5.45;2.97;;;;;;;;;;5009837;28;20027;-70
2021/07/13 00:09:10;;;;;;;4.22;2.50;;;;;;;;;;5012178;28;20050;-70
2021/07/13 00:11:38;;;;;;;6.65;2.60;;;;;;;;;;5013684;28;20056;-69
2021/07/13 00:14:06;;;;;;;5.28;2.40;;;;;;;;;;4991976;28;20451;-70
2021/07/13 00:16:34;;;;;;;6.88;2.40;;;;;;;;;;4996428;28;20092;-71
2021/07/13 00:19:01;;;;;;;8.07;2.92;;;;;;;;;;5007407;28;20032;-72
2021/07/13 00:21:28;;;;;;;7.65;2.33;;;;;;;;;;5011868;28;20497;-71
2021/07/13 00:23:55;;;;;;;9.25;2.63;;;;;;;;;;4994537;28;20038;-70
2021/07/13 00:26:24;;;;;;;7.25;2.20;;;;;;;;;;5010835;28;20034;-71
2021/07/13 00:28:51;;;;;;;7.45;2.63;;;;;;;;;;5012805;28;20034;-69
2021/07/13 00:31:18;;;;;;;4.25;1.85;;;;;;;;;;4993181;28;20029;-70
2021/07/13 00:33:45;;;;;;;4.93;2.15;;;;;;;;;;5011685;28;20085;-70
2021/07/13 00:36:12;;;;;;;4.25;1.95;;;;;;;;;;5010250;28;20368;-70
2021/07/13 00:38:39;;;;;;;8.00;1.60;;;;;;;;;;4991858;28;20034;-70
2021/07/13 00:41:06;;;;;;;4.90;2.17;;;;;;;;;;5007631;28;20479;-69
2021/07/13 00:43:33;;;;;;;4.13;1.50;;;;;;;;;;5013604;28;20025;-70
2021/07/13 00:46:01;;;;;;;5.88;2.58;;;;;;;;;;5008844;28;20145;-71
2021/07/13 00:48:28;;;;;;;5.82;2.03;;;;;;;;;;5013651;28;20471;-70
2021/07/13 00:50:58;;;;;;;3.15;1.30;;;;;;;;;;4993373;28;20026;-70
2021/07/13 00:53:25;;;;;;;6.75;2.40;;;;;;;;;;4995461;28;20530;-71
2021/07/13 00:55:54;;;;;;;7.57;1.98;;;;;;;;;;5007353;28;20057;-70
2021/07/13 00:58:21;;;;;;;5.90;2.15;;;;;;;;;;4989434;28;20064;-70
2021/07/13 01:00:48;;;;;;;3.85;1.67;;;;;;;;;;5010245;28;20108;-70
2021/07/13 01:03:15;;;;;;;4.70;1.55;;;;;;;;;;4995800;28;20501;-70
2021/07/13 01:05:44;;;;;;;4.57;1.30;;;;;;;;;;5009694;28;20029;-70
2021/07/13 01:08:17;;;;;;;4.72;1.95;;;;;;;;;;5005153;28;20028;-69
2021/07/13 01:11:11;;;;;;;7.40;2.00;;;;;;;;;;5006738;28;20029;-70
2021/07/13 01:13:57;;;;;;;4.93;1.63;;;;;;;;;;4974862;28;20060;-70
2021/07/13 01:16:34;;;;;;;6.47;1.38;;;;;;;;;;5003723;28;20332;-70
2021/07/13 01:19:19;;;;;;;2.70;1.10;;;;;;;;;;5010600;28;20044;-69
2021/07/13 01:21:55;;;;;;;5.05;1.30;;;;;;;;;;5009773;28;20041;-69
2021/07/13 01:24:32;;;;;;;1.88;0.68;;;;;;;;;;5011264;28;20030;-70
2021/07/13 01:26:59;;;;;;;4.63;0.95;;;;;;;;;;5004798;28;20114;-70
2021/07/13 01:29:27;;;;;;;1.50;0.50;;;;;;;;;;5008427;28;20088;-70
2021/07/13 01:31:55;;;;;;;2.53;0.88;;;;;;;;;;4995532;28;20124;-70
2021/07/13 01:34:25;;;;;;;3.53;0.70;;;;;;;;;;5012568;28;20100;-71
2021/07/13 01:37:00;;;;;;;3.05;0.70;;;;;;;;;;5010131;28;20036;-70
2021/07/13 01:39:28;;;;;;;3.55;0.50;;;;;;;;;;4994488;28;20548;-70
2021/07/13 01:41:56;;;;;;;3.03;0.55;;;;;;;;;;5011102;28;20029;-70
2021/07/13 01:44:24;;;;;;;4.00;0.52;;;;;;;;;;5010999;28;20014;-70
2021/07/13 01:46:52;;;;;;;1.60;0.40;;;;;;;;;;4992394;28;20033;-71
2021/07/13 01:49:20;;;;;;;3.60;0.70;;;;;;;;;;5013151;28;20371;-70
2021/07/13 01:51:48;;;;;;;1.10;0.30;;;;;;;;;;5000414;28;20403;-71
2021/07/13 01:54:17;;;;;;;2.47;0.57;;;;;;;;;;4996744;28;20121;-70
2021/07/13 01:56:48;;;;;;;1.70;0.50;;;;;;;;;;5006370;28;20034;-70
2021/07/13 01:59:19;;;;;;;2.08;0.60;;;;;;;;;;5009232;28;20153;-71
2021/07/13 02:01:47;;;;;;;2.65;1.50;;;;;;;;;;5010111;28;20022;-70
2021/07/13 02:04:15;;;;;;;5.03;0.57;;;;;;;;;;4995103;28;20022;-69
2021/07/13 02:06:45;;;;;;;1.15;0.43;;;;;;;;;;5007418;28;20080;-70
2021/07/13 02:09:14;;;;;;;1.27;0.30;;;;;;;;;;5007002;28;20046;-70
2021/07/13 02:11:46;;;;;;;2.92;0.30;;;;;;;;;;5002207;28;20027;-72
2021/07/13 02:14:14;;;;;;;1.15;0.20;;;;;;;;;;5008966;28;20100;-71
2021/07/13 02:16:42;;;;;;;2.10;0.50;;;;;;;;;;5005304;28;20026;-71
2021/07/13 02:19:09;;;;;;;2.20;0.70;;;;;;;;;;5004303;28;20092;-71
2021/07/13 02:21:37;;;;;;;5.75;0.40;;;;;;;;;;5009512;28;20116;-70
2021/07/13 02:24:04;;;;;;;1.58;0.40;;;;;;;;;;5012265;28;20026;-71
2021/07/13 02:26:37;;;;;;;2.63;0.40;;;;;;;;;;4990936;28;20116;-71
2021/07/13 02:29:24;;;;;;;3.15;0.50;;;;;;;;;;5008924;28;20022;-71
2021/07/13 02:31:55;;;;;;;3.40;0.68;;;;;;;;;;5001814;28;20064;-71
2021/07/13 02:34:23;;;;;;;1.25;0.40;;;;;;;;;;5008190;28;20014;-71
2021/07/13 02:36:53;;;;;;;2.80;0.50;;;;;;;;;;5004783;28;20471;-71
2021/07/13 02:39:21;;;;;;;4.03;0.32;;;;;;;;;;5010444;28;20025;-71
2021/07/13 02:41:49;;;;;;;4.18;0.70;;;;;;;;;;5005720;28;20034;-72
2021/07/13 02:44:17;;;;;;;1.15;0.25;;;;;;;;;;5012224;28;20014;-72
2021/07/13 02:46:45;;;;;;;1.65;0.60;;;;;;;;;;5007667;28;20113;-71
2021/07/13 02:49:16;;;;;;;5.95;0.68;;;;;;;;;;5012159;28;20025;-71
2021/07/13 02:51:43;;;;;;;3.42;0.52;;;;;;;;;;4990998;28;20038;-72
2021/07/13 02:54:11;;;;;;;1.48;0.40;;;;;;;;;;5010692;28;20030;-72
2021/07/13 02:56:40;;;;;;;2.75;0.47;;;;;;;;;;5010645;28;20030;-71
2021/07/13 02:59:08;;;;;;;1.77;0.40;;;;;;;;;;5012319;28;20029;-72
2021/07/13 03:01:36;;;;;;;1.40;0.60;;;;;;;;;;4992805;28;20386;-70
2021/07/13 03:04:05;;;;;;;3.13;0.60;;;;;;;;;;4992267;28;20034;-71
2021/07/13 03:06:32;;;;;;;3.30;0.80;;;;;;;;;;5006749;28;20030;-71
2021/07/13 03:09:00;;;;;;;3.13;0.47;;;;;;;;;;5011877;28;20046;-71
2021/07/13 03:11:27;;;;;;;4.00;0.90;;;;;;;;;;5010754;28;20060;-71
2021/07/13 03:13:55;;;;;;;2.83;0.50;;;;;;;;;;4991865;28;20124;-71
2021/07/13 03:16:22;;;;;;;1.13;0.35;;;;;;;;;;4993232;28;20022;-71
2021/07/13 03:18:49;;;;;;;2.58;0.30;;;;;;;;;;5012142;28;20026;-71
2021/07/13 03:21:22;;;;;;;1.75;0.40;;;;;;;;;;4993054;28;20406;-71
2021/07/13 03:23:50;;;;;;;0.68;0.30;;;;;;;;;;4994601;28;20033;-72
2021/07/13 03:26:17;;;;;;;0.70;0.30;;;;;;;;;;5010901;28;20029;-71
2021/07/13 03:28:46;;;;;;;2.40;0.40;;;;;;;;;;5011833;28;20022;-70
2021/07/13 03:31:13;;;;;;;1.35;0.30;;;;;;;;;;4990918;28;20061;-71
2021/07/13 03:33:40;;;;;;;2.65;0.40;;;;;;;;;;5012093;28;20030;-71
2021/07/13 03:36:07;;;;;;;2.25;0.40;;;;;;;;;;5008950;28;20026;-71
2021/07/13 03:38:35;;;;;;;2.80;0.70;;;;;;;;;;5012191;28;20022;-71
2021/07/13 03:41:02;;;;;;;1.52;0.40;;;;;;;;;;4993242;28;20092;-71
2021/07/13 03:43:29;;;;;;;1.42;0.50;;;;;;;;;;5012083;28;20072;-71
2021/07/13 03:45:57;;;;;;;3.83;0.57;;;;;;;;;;5009932;28;20026;-72
2021/07/13 03:48:25;;;;;;;2.00;0.50;;;;;;;;;;5009890;28;20022;-71
2021/07/13 03:50:52;;;;;;;2.35;0.63;;;;;;;;;;4993543;28;20022;-72
2021/07/13 03:53:19;;;;;;;1.48;0.63;;;;;;;;;;4993777;28;20029;-70
2021/07/13 03:55:46;;;;;;;2.22;0.40;;;;;;;;;;5009723;28;20081;-72
2021/07/13 03:58:13;;;;;;;2.03;0.35;;;;;;;;;;5011658;28;20022;-72
2021/07/13 04:00:41;;;;;;;1.27;0.30;;;;;;;;;;5013614;28;20092;-70
2021/07/13 04:03:08;;;;;;;1.48;0.45;;;;;;;;;;5010491;28;20022;-71
2021/07/13 04:05:35;;;;;;;1.50;0.40;;;;;;;;;;5012415;28;20023;-70
2021/07/13 04:08:03;;;;;;;2.65;0.30;;;;;;;;;;5001168;28;20034;-70
2021/07/13 04:10:30;;;;;;;2.58;0.50;;;;;;;;;;4992096;28;20600;-70
2021/07/13 04:12:58;;;;;;;1.80;0.40;;;;;;;;;;4997319;28;20026;-71
2021/07/13 04:15:25;;;;;;;1.35;0.73;;;;;;;;;;4996491;28;20033;-71
2021/07/13 04:17:52;;;;;;;1.65;0.55;;;;;;;;;;5014820;28;20025;-71
2021/07/13 04:20:19;;;;;;;2.15;0.47;;;;;;;;;;5013195;28;20021;-71
2021/07/13 04:22:46;;;;;;;1.23;0.30;;;;;;;;;;4996207;28;20037;-71
2021/07/13 04:25:14;;;;;;;2.42;0.50;;;;;;;;;;4994495;28;20041;-71
2021/07/13 04:27:41;;;;;;;1.77;0.40;;;;;;;;;;5012488;28;20034;-71
2021/07/13 04:30:09;;;;;;;1.33;0.47;;;;;;;;;;5008710;28;20038;-71
2021/07/13 04:32:36;;;;;;;3.47;0.77;;;;;;;;;;5013753;28;20034;-72
2021/07/13 04:35:04;;;;;;;4.00;0.50;;;;;;;;;;4997078;28;20033;-72
2021/07/13 04:37:32;;;;;;;1.80;0.30;;;;;;;;;;4995333;28;20084;-72
2021/07/13 04:39:59;;;;;;;1.73;0.30;;;;;;;;;;5014566;28;20117;-71
2021/07/13 04:42:26;;;;;;;1.45;0.20;;;;;;;;;;5012592;28;20541;-71
2021/07/13 04:44:54;;;;;;;1.17;0.30;;;;;;;;;;5014269;28;20034;-72
2021/07/13 04:47:21;;;;;;;0.77;0.30;;;;;;;;;;4994813;28;20026;-71
2021/07/13 04:49:48;;;;;;;2.00;0.43;;;;;;;;;;5014382;28;20479;-72
2021/07/13 04:52:15;;;;;;;2.95;0.30;;;;;;;;;;4994795;28;20112;-73
2021/07/13 04:54:42;;;;;;;0.95;0.30;;;;;;;;;;4996866;28;20022;-71
2021/07/13 04:57:09;;;;;;;2.15;0.40;;;;;;;;;;5012231;28;20038;-72
2021/07/13 04:59:37;;;;;;;3.63;0.40;;;;;;;;;;4996698;28;20076;-72
2021/07/13 05:02:04;;;;;;;0.80;0.32;;;;;;;;;;5010450;28;20026;-71
2021/07/13 05:04:32;;;;;;;0.85;0.20;;;;;;;;;;5009179;28;20067;-72
2021/07/13 05:06:59;;;;;;;0.68;0.38;;;;;;;;;;4994574;28;20113;-72
2021/07/13 05:09:26;;;;;;;3.85;0.50;;;;;;;;;;5013191;28;20053;-71
2021/07/13 05:11:53;;;;;;;1.02;0.50;;;;;;;;;;5011980;28;20033;-71
2021/07/13 05:14:20;;;;;;;1.73;0.20;;;;;;;;;;4995359;28;20025;-72
2021/07/13 05:16:47;;;;;;;2.78;0.35;;;;;;;;;;5011735;28;20033;-72
2021/07/13 05:19:15;;;;;;;2.00;0.30;;;;;;;;;;4996167;28;20026;-73
2021/07/13 05:21:48;;;;;;;1.38;0.50;;;;;;;;;;5009890;28;20028;-70
2021/07/13 05:24:15;;;;;;;2.80;0.60;;;;;;;;;;4996629;28;20073;-71
2021/07/13 05:26:42;;;;;;;2.40;0.30;;;;;;;;;;5004953;28;20033;-72
2021/07/13 05:29:10;;;;;;;2.40;0.30;;;;;;;;;;5013762;28;20013;-71
2021/07/13 05:31:37;;;;;;;1.17;0.20;;;;;;;;;;5001714;28;20026;-72
2021/07/13 05:34:04;;;;;;;1.38;0.52;;;;;;;;;;4993844;28;20037;-71
2021/07/13 05:36:31;;;;;;;4.03;0.50;;;;;;;;;;5001615;28;20025;-71
2021/07/13 05:39:00;;;;;;;1.60;0.50;;;;;;;;;;5008517;28;20030;-71
2021/07/13 05:41:27;;;;;;;1.77;0.85;;;;;;;;;;4992952;28;20034;-70
2021/07/13 05:43:57;;;;;;;2.95;0.40;;;;;;;;;;5013456;28;20024;-70
2021/07/13 05:46:24;;;;;;;1.48;0.30;;;;;;;;;;5011688;28;20032;-71
2021/07/13 05:48:51;;;;;;;3.45;0.43;;;;;;;;;;4995636;28;20076;-70
2021/07/13 05:51:19;;;;;;;2.80;1.13;;;;;;;;;;4993094;28;20053;-71
2021/07/13 05:53:46;;;;;;;4.35;0.57;;;;;;;;;;4991175;28;20029;-71
2021/07/13 05:56:13;;;;;;;1.30;0.60;;;;;;;;;;5007621;28;20018;-70
2021/07/13 05:58:40;;;;;;;3.88;0.60;;;;;;;;;;5009863;28;20040;-70
2021/07/13 06:01:08;;;;;;;4.43;0.65;;;;;;;;;;5007688;28;20022;-71
2021/07/13 06:03:35;;;;;;;1.92;0.43;;;;;;;;;;5006380;28;20109;-70
2021/07/13 06:06:02;;;;;;;0.82;0.50;;;;;;;;;;5004372;28;20028;-70
2021/07/13 06:08:29;;;;;;;2.15;0.55;;;;;;;;;;4986596;28;20046;-70
2021/07/13 06:10:56;;;;;;;1.83;0.50;;;;;;;;;;4981178;28;20037;-70
2021/07/13 06:13:23;;;;;;;3.13;0.50;;;;;;;;;;4982049;28;20030;-70
2021/07/13 06:15:51;;;;;;;1.35;0.50;;;;;;;;;;4986085;28;20033;-69
2021/07/13 06:18:18;;;;;;;2.88;0.70;;;;;;;;;;4991584;28;20041;-70
2021/07/13 06:20:46;;;;;;;1.52;0.73;;;;;;;;;;4986324;28;20019;-71
2021/07/13 06:23:13;;;;;;;4.65;0.77;;;;;;;;;;4985920;28;20026;-71
2021/07/13 06:25:42;;;;;;;3.00;0.85;;;;;;;;;;4989045;28;20066;-71
2021/07/13 06:28:09;;;;;;;2.38;1.17;;;;;;;;;;4988899;28;20118;-70
2021/07/13 06:30:37;;;;;;;4.80;0.70;;;;;;;;;;4990157;28;20041;-70
2021/07/13 06:33:04;;;;;;;2.70;0.70;;;;;;;;;;4991625;28;20038;-71
2021/07/13 06:35:31;;;;;;;4.00;1.00;;;;;;;;;;4991582;28;20026;-71
2021/07/13 06:37:59;;;;;;;3.58;0.70;;;;;;;;;;4987699;28;20094;-71
2021/07/13 06:40:27;;;;;;;2.38;0.90;;;;;;;;;;4989610;28;20073;-70
2021/07/13 06:42:54;;;;;;;3.00;0.90;;;;;;;;;;4974058;28;20034;-71
2021/07/13 06:45:21;;;;;;;4.40;1.10;;;;;;;;;;4989491;28;20113;-71
2021/07/13 06:47:54;;;;;;;2.97;1.33;;;;;;;;;;4991480;28;20038;-70
2021/07/13 06:50:22;;;;;;;2.40;1.10;;;;;;;;;;4985049;28;20026;-71
2021/07/13 06:52:49;;;;;;;4.95;1.02;;;;;;;;;;4989645;28;20479;-71
2021/07/13 06:55:16;;;;;;;4.15;1.33;;;;;;;;;;4989906;28;20105;-71
2021/07/13 06:57:43;;;;;;;5.65;1.77;;;;;;;;;;4989884;28;20088;-71
2021/07/13 07:00:11;;;;;;;4.45;1.38;;;;;;;;;;4990700;28;20038;-70
2021/07/13 07:02:38;;;;;;;5.57;1.95;;;;;;;;;;4991647;28;20026;-70
2021/07/13 07:05:06;;;;;;;6.13;1.50;;;;;;;;;;4990544;28;20148;-70
2021/07/13 07:07:33;;;;;;;4.05;1.17;;;;;;;;;;4989315;28;20427;-70
2021/07/13 07:10:00;;;;;;;4.07;1.33;;;;;;;;;;5007871;28;20053;-70
2021/07/13 07:12:27;;;;;;;2.58;1.10;;;;;;;;;;5009257;28;20093;-70
2021/07/13 07:14:54;;;;;;;4.15;0.90;;;;;;;;;;5008260;28;20442;-70
2021/07/13 07:17:21;;;;;;;5.68;1.17;;;;;;;;;;5004064;28;20030;-71
2021/07/13 07:19:49;;;;;;;2.83;1.23;;;;;;;;;;5007656;28;20018;-69
2021/07/13 07:22:16;;;;;;;3.17;1.10;;;;;;;;;;5005835;28;20040;-70
2021/07/13 07:24:43;;;;;;;3.28;1.48;;;;;;;;;;5008513;28;20072;-70
2021/07/13 07:27:10;;;;;;;6.22;1.42;;;;;;;;;;5002851;28;20487;-70
2021/07/13 07:29:37;;;;;;;3.78;1.08;;;;;;;;;;5006736;28;20034;-69
2021/07/13 07:32:04;;;;;;;2.38;0.80;;;;;;;;;;5005455;28;20049;-69
2021/07/13 07:34:31;;;;;;;2.90;1.27;;;;;;;;;;5010124;28;20018;-70
2021/07/13 07:36:58;;;;;;;4.28;1.90;;;;;;;;;;5009565;28;20471;-70
2021/07/13 07:39:26;;;;;;;6.45;2.15;;;;;;;;;;4994141;28;20079;-70
2021/07/13 07:41:54;;;;;;;4.13;1.98;;;;;;;;;;4979986;28;20521;-69
2021/07/13 07:44:23;;;;;;;4.75;2.08;;;;;;;;;;5014445;28;20034;-70
2021/07/13 07:46:51;;;;;;;3.58;1.73;;;;;;;;;;4992058;28;20422;-69
2021/07/13 07:49:18;;;;;;;2.78;1.42;;;;;;;;;;4995428;28;20390;-70
2021/07/13 07:51:45;;;;;;;5.57;1.65;;;;;;;;;;4991899;28;20042;-71
2021/07/13 07:54:12;;;;;;;3.28;1.30;;;;;;;;;;5011184;28;20022;-70
2021/07/13 07:56:39;;;;;;;3.55;1.17;;;;;;;;;;4993479;28;20034;-70
2021/07/13 07:59:07;;;;;;;4.22;1.40;;;;;;;;;;5010422;28;20116;-70
2021/07/13 08:01:34;;;;;;;3.50;1.25;;;;;;;;;;5010804;28;20023;-70
2021/07/13 08:04:01;;;;;;;4.70;1.10;;;;;;;;;;5001623;28;20105;-70
2021/07/13 08:06:28;;;;;;;2.47;1.33;;;;;;;;;;5013755;28;20053;-71
2021/07/13 08:08:55;;;;;;;3.53;1.70;;;;;;;;;;5020993;28;20041;-70
2021/07/13 08:11:23;;;;;;;5.00;1.73;;;;;;;;;;4999183;28;20034;-70
2021/07/13 08:13:50;;;;;;;5.30;2.20;;;;;;;;;;5013205;28;20402;-70
2021/07/13 08:16:17;;;;;;;4.03;2.45;;;;;;;;;;5013388;28;20040;-71
2021/07/13 08:18:44;;;;;;;4.90;1.92;;;;;;;;;;5012532;28;20512;-70
2021/07/13 08:21:11;;;;;;;7.10;3.33;;;;;;;;;;5008788;28;20030;-71
2021/07/13 08:23:38;;;;;;;6.75;3.60;;;;;;;;;;4993406;28;20872;-73
2021/07/13 08:26:05;;;;;;;7.65;3.72;;;;;;;;;;5009351;28;20116;-72
2021/07/13 08:28:33;;;;;;;8.18;3.33;;;;;;;;;;4992507;28;20026;-73
2021/07/13 08:31:00;;;;;;;8.68;3.63;;;;;;;;;;5009206;28;20030;-72
2021/07/13 08:33:27;;;;;;;4.70;2.60;;;;;;;;;;5008062;28;20088;-72
2021/07/13 08:35:54;;;;;;;4.68;2.38;;;;;;;;;;4991128;28;20030;-71
2021/07/13 08:38:21;;;;;;;3.85;2.20;;;;;;;;;;5011879;28;20419;-71
2021/07/13 08:40:49;;;;;;;4.40;1.95;;;;;;;;;;5006139;28;20378;-71
2021/07/13 08:43:16;;;;;;;4.70;2.28;;;;;;;;;;4992939;28;20029;-71
2021/07/13 08:45:45;;;;;;;3.67;1.83;;;;;;;;;;4994162;28;20033;-72
2021/07/13 08:48:13;;;;;;;3.15;2.22;;;;;;;;;;4993596;28;20458;-71
2021/07/13 08:50:40;;;;;;;3.97;2.25;;;;;;;;;;5010969;28;20034;-71
2021/07/13 08:53:07;;;;;;;6.35;2.20;;;;;;;;;;5010626;28;20021;-71
2021/07/13 08:55:34;;;;;;;8.75;3.55;;;;;;;;;;4993171;28;20026;-70
2021/07/13 08:58:02;;;;;;;7.43;3.80;;;;;;;;;;4993755;28;20505;-71
2021/07/13 09:00:29;;;;;;;10.63;4.93;;;;;;;;;;5007973;28;20053;-70
2021/07/13 09:03:06;;;;;;;7.63;4.78;;;;;;;;;;4995417;28;20030;-71
2021/07/13 09:05:45;;;;;;;7.75;3.70;;;;;;;;;;4999910;28;20077;-71
2021/07/13 09:08:13;;;;;;;6.60;3.28;;;;;;;;;;5012677;28;20030;-71
2021/07/13 09:10:41;;;;;;;9.70;3.25;;;;;;;;;;5008179;28;20022;-70
2021/07/13 09:13:08;;;;;;;7.03;2.97;;;;;;;;;;5003480;28;20033;-70
2021/07/13 09:15:35;;;;;;;8.65;3.20;;;;;;;;;;5010553;28;20022;-71
2021/07/13 09:18:02;;;;;;;4.40;2.08;;;;;;;;;;5011594;28;20128;-71
2021/07/13 09:20:31;;;;;;;5.95;2.75;;;;;;;;;;5001431;28;20134;-71
2021/07/13 09:22:59;;;;;;;5.40;2.30;;;;;;;;;;5013031;28;20026;-70
2021/07/13 09:25:44;;;;;;;4.32;2.25;;;;;;;;;;5011476;28;20021;-70
2021/07/13 09:28:13;;;;;;;3.35;1.85;;;;;;;;;;4994272;28;20062;-71
2021/07/13 09:30:47;;;;;;;9.15;2.08;;;;;;;;;;4994639;28;20076;-71
2021/07/13 09:33:14;;;;;;;;;;;;;;;;;;5012399;28;20494;-71
2021/07/13 09:35:57;;;;;;;10.77;3.22;;;;;;;;;;5010680;28;19913;-71
2021/07/13 09:38:24;;;;;;;4.22;1.85;;;;;;;;;;5012729;28;20475;-71
2021/07/13 09:41:00;;;;;;;7.30;2.20;;;;;;;;;;4993741;28;20041;-71
2021/07/13 09:43:27;;;;;;;4.85;1.85;;;;;;;;;;5013475;28;20390;-71
2021/07/13 09:45:54;;;;;;;4.28;1.70;;;;;;;;;;5010782;28;20021;-69
2021/07/13 09:48:21;;;;;;;5.22;2.08;;;;;;;;;;5012183;28;20450;-70
2021/07/13 09:50:49;;;;;;;4.82;2.10;;;;;;;;;;4993073;28;20084;-70
2021/07/13 09:53:22;;;;;;;5.20;2.17;;;;;;;;;;5009029;28;20018;-70
2021/07/13 09:55:51;;;;;;;7.53;2.95;;;;;;;;;;5005655;28;20026;-71
2021/07/13 09:58:26;;;;;;;6.25;2.65;;;;;;;;;;5010042;28;20026;-70
2021/07/13 10:00:56;;;;;;;7.07;2.55;;;;;;;;;;5010492;28;20018;-69
2021/07/13 10:03:27;;;;;;;4.07;1.58;;;;;;;;;;5011697;28;20025;-70
2021/07/13 10:05:56;;;;;;;3.10;1.38;;;;;;;;;;5008945;28;20391;-71
2021/07/13 10:08:23;;;;;;;4.18;1.40;;;;;;;;;;5009230;28;20068;-71
2021/07/13 10:10:50;;;;;;;3.50;1.27;;;;;;;;;;5010246;28;20018;-70
2021/07/13 10:13:18;;;;;;;3.97;1.58;;;;;;;;;;5011666;28;20022;-70
2021/07/13 10:15:48;;;;;;;2.55;1.20;;;;;;;;;;5009458;28;20063;-70
2021/07/13 10:18:15;;;;;;;6.40;1.80;;;;;;;;;;5010893;28;20104;-69
2021/07/13 10:20:43;;;;;;;4.63;1.17;;;;;;;;;;5009634;28;20022;-69
2021/07/13 10:23:11;;;;;;;3.53;1.45;;;;;;;;;;5011222;28;20068;-70
2021/07/13 10:25:43;;;;;;;3.03;1.08;;;;;;;;;;4991019;28;20435;-70
2021/07/13 10:28:10;;;;;;;2.97;1.20;;;;;;;;;;5011863;28;20108;-69
2021/07/13 10:30:45;;;;;;;3.15;1.20;;;;;;;;;;5006878;28;20117;-69
2021/07/13 10:33:27;;;;;;;3.80;1.30;;;;;;;;;;5011928;28;20033;-70
2021/07/13 10:35:56;;;;;;;3.50;1.27;;;;;;;;;;4993753;28;20059;-70
2021/07/13 10:38:24;;;;;;;2.67;1.25;;;;;;;;;;5019100;28;20025;-70
2021/07/13 10:40:54;;;;;;;4.22;1.48;;;;;;;;;;5023402;28;20402;-71
2021/07/13 10:43:33;;;;;;;4.13;1.65;;;;;;;;;;5013328;28;20173;-71
2021/07/13 10:46:07;;;;;;;4.00;1.70;;;;;;;;;;5015338;28;20183;-71
2021/07/13 10:48:34;;;;;;;5.07;1.50;;;;;;;;;;5003121;28;20042;-71
2021/07/13 10:51:09;;;;;;;2.80;1.52;;;;;;;;;;5025416;28;20409;-71
2021/07/13 10:53:41;;;;;;;3.75;1.48;;;;;;;;;;5014905;28;20076;-70
2021/07/13 10:56:08;;;;;;;8.23;2.22;;;;;;;;;;5031866;28;20025;-71
2021/07/13 10:58:40;;;;;;;6.80;1.63;;;;;;;;;;5004069;28;20022;-71
2021/07/13 11:01:08;;;;;;;4.60;1.67;;;;;;;;;;5002647;28;20524;-70
2021/07/13 11:03:38;;;;;;;5.10;1.90;;;;;;;;;;5020717;28;20044;-70
2021/07/13 11:06:10;;;;;;;3.78;1.67;;;;;;;;;;5012421;28;20639;-70
2021/07/13 11:08:52;;;;;;;3.50;1.48;;;;;;;;;;5018210;28;20033;-71
2021/07/13 11:11:22;;;;;;;3.38;1.58;;;;;;;;;;5015962;28;20112;-72
2021/07/13 11:13:52;;;;;;;4.50;1.60;;;;;;;;;;5009926;28;20065;-70
2021/07/13 11:16:26;;;;;;;3.47;1.48;;;;;;;;;;5005412;28;20092;-70
2021/07/13 11:18:54;;;;;;;5.28;2.10;;;;;;;;;;4999339;28;20030;-72
2021/07/13 11:21:24;;;;;;;3.35;1.50;;;;;;;;;;5019251;28;20030;-72
2021/07/13 11:23:53;;;;;;;3.55;1.50;;;;;;;;;;5032830;28;20034;-71
2021/07/13 11:26:22;;;;;;;5.45;1.90;;;;;;;;;;5031165;28;20440;-70
2021/07/13 11:28:51;;;;;;;3.88;2.08;;;;;;;;;;5017816;28;20502;-70
2021/07/13 11:31:26;;;;;;;3.72;2.25;;;;;;;;;;5013692;28;20060;-71
2021/07/13 11:34:00;;;;;;;5.30;2.35;;;;;;;;;;5024191;28;20104;-70
2021/07/13 11:36:28;;;;;;;3.15;1.83;;;;;;;;;;5023455;28;20433;-70
2021/07/13 11:38:57;;;;;;;5.38;1.50;;;;;;;;;;5027561;28;20045;-70
2021/07/13 11:41:26;;;;;;;3.95;1.83;;;;;;;;;;5026537;28;20109;-71
2021/07/13 11:43:54;;;;;;;2.63;1.38;;;;;;;;;;5015006;28;20026;-69
2021/07/13 11:46:22;;;;;;;3.35;1.75;;;;;;;;;;5025851;28;20088;-71
2021/07/13 11:48:57;;;;;;;3.95;1.30;;;;;;;;;;5022770;28;20032;-69
2021/07/13 11:51:23;;;;;;;;;;;;;;;;;;5026229;28;20035;-70
2021/07/13 11:54:00;;;;;;;3.00;1.50;;;;;;;;;;5014548;28;19909;-69
2021/07/13 11:56:28;;;;;;;4.40;2.00;;;;;;;;;;5024314;28;20087;-71
2021/07/13 11:58:55;;;;;;;3.42;1.75;;;;;;;;;;5030759;28;20478;-70
2021/07/13 12:01:23;;;;;;;3.30;1.80;;;;;;;;;;5015222;28;20049;-70
2021/07/13 12:03:54;;;;;;;4.40;1.60;;;;;;;;;;5033053;28;20155;-70
2021/07/13 12:06:24;;;;;;;3.42;1.85;;;;;;;;;;5015978;28;20026;-70
2021/07/13 12:08:55;;;;;;;3.00;1.17;;;;;;;;;;5007318;28;20053;-70
2021/07/13 12:11:23;;;;;;;2.85;1.60;;;;;;;;;;5005969;28;20069;-69
2021/07/13 12:13:51;;;;;;;6.05;2.67;;;;;;;;;;5026015;28;20021;-69
2021/07/13 12:16:18;;;;;;;3.20;1.13;;;;;;;;;;5012883;28;20026;-70
2021/07/13 12:18:46;;;;;;;3.67;1.73;;;;;;;;;;5010265;28;20617;-70
2021/07/13 12:21:14;;;;;;;3.40;1.35;;;;;;;;;;5029838;28;20025;-70
2021/07/13 12:23:45;;;;;;;2.30;1.23;;;;;;;;;;5029293;28;20113;-71
2021/07/13 12:26:22;;;;;;;3.15;1.10;;;;;;;;;;5002747;28;20413;-70
2021/07/13 12:29:01;;;;;;;4.55;1.25;;;;;;;;;;5018241;28;20053;-70
2021/07/13 12:31:28;;;;;;;5.05;1.23;;;;;;;;;;5029956;28;20026;-70
2021/07/13 12:33:56;;;;;;;3.05;1.13;;;;;;;;;;5023886;28;20025;-70
2021/07/13 12:36:29;;;;;;;3.53;1.13;;;;;;;;;;5023346;28;20109;-70
2021/07/13 12:38:57;;;;;;;3.47;1.10;;;;;;;;;;5013756;28;20114;-70
2021/07/13 12:41:30;;;;;;;1.38;1.05;;;;;;;;;;5029868;28;20124;-69
2021/07/13 12:43:57;;;;;;;4.38;1.30;;;;;;;;;;5006836;28;20033;-70
2021/07/13 12:46:27;;;;;;;1.75;1.38;;;;;;;;;;5022898;28;20021;-69
2021/07/13 12:48:55;;;;;;;2.95;0.90;;;;;;;;;;5011654;28;20033;-69
2021/07/13 12:51:23;;;;;;;1.63;0.60;;;;;;;;;;4994603;28;20030;-69
2021/07/13 12:54:10;;;;;;;4.55;0.90;;;;;;;;;;5024851;28;20033;-69
2021/07/13 12:56:38;;;;;;;1.73;0.90;;;;;;;;;;5032233;28;20026;-69
2021/07/13 12:59:06;;;;;;;3.60;1.00;;;;;;;;;;5027063;28;20095;-70
2021/07/13 13:01:33;;;;;;;1.63;0.80;;;;;;;;;;5023721;28;20494;-70
2021/07/13 13:04:12;;;;;;;2.83;0.90;;;;;;;;;;5032125;28;20099;-70
2021/07/13 13:06:40;;;;;;;3.75;0.88;;;;;;;;;;5029655;28;20411;-70
2021/07/13 13:09:09;;;;;;;1.85;0.82;;;;;;;;;;5029285;28;20038;-69
2021/07/13 13:11:37;;;;;;;3.60;0.80;;;;;;;;;;5031807;28;20027;-68
2021/07/13 13:14:09;;;;;;;1.80;0.70;;;;;;;;;;5023934;28;20049;-69
2021/07/13 13:16:38;;;;;;;1.58;0.90;;;;;;;;;;5003399;28;20112;-69
2021/07/13 13:19:06;;;;;;;2.00;0.80;;;;;;;;;;5019287;28;20017;-69
2021/07/13 13:21:33;;;;;;;1.63;0.70;;;;;;;;;;5029828;28;20060;-69
2021/07/13 13:24:05;;;;;;;3.72;0.80;;;;;;;;;;5032339;28;20075;-69
2021/07/13 13:26:32;;;;;;;2.15;0.80;;;;;;;;;;5030798;28;20034;-69
2021/07/13 13:29:00;;;;;;;2.28;0.85;;;;;;;;;;5014584;28;20021;-70
2021/07/13 13:31:27;;;;;;;2.10;1.10;;;;;;;;;;5012277;28;20034;-70
2021/07/13 13:33:54;;;;;;;1.88;0.63;;;;;;;;;;5021963;28;20021;-70
2021/07/13 13:36:29;;;;;;;2.83;1.05;;;;;;;;;;5007399;28;20022;-69
2021/07/13 13:41:29;;;;;;;1.75;0.90;;;;;;;;;;5016890;28;20172;-69
2021/07/13 13:43:56;;;;;;;2.42;0.75;;;;;;;;;;5027527;28;20112;-69
2021/07/13 13:46:23;;;;;;;2.63;0.77;;;;;;;;;;5028074;28;20025;-69
2021/07/13 13:48:51;;;;;;;5.15;0.90;;;;;;;;;;5022013;28;20029;-69
2021/07/13 13:51:18;;;;;;;2.33;0.80;;;;;;;;;;5019479;28;20034;-69
2021/07/13 13:53:45;;;;;;;1.88;0.88;;;;;;;;;;5026988;28;20083;-69
2021/07/13 13:56:13;;;;;;;2.35;0.60;;;;;;;;;;5018922;28;20040;-69
2021/07/13 13:58:41;;;;;;;1.70;0.68;;;;;;;;;;5024274;28;20026;-69
2021/07/13 14:01:12;;;;;;;2.88;0.57;;;;;;;;;;5009026;28;20065;-70
2021/07/13 14:03:39;;;;;;;3.92;0.70;;;;;;;;;;5016586;28;20025;-69
2021/07/13 14:06:07;;;;;;;2.78;0.60;;;;;;;;;;5018688;28;20034;-69
2021/07/13 14:08:34;;;;;;;3.08;0.77;;;;;;;;;;5021862;28;20045;-69
2021/07/13 14:11:02;;;;;;;2.20;0.63;;;;;;;;;;5024916;28;20044;-69
2021/07/13 14:13:30;;;;;;;3.05;0.70;;;;;;;;;;5031245;28;20022;-69
2021/07/13 14:15:57;;;;;;;3.70;0.65;;;;;;;;;;5024222;28;20033;-69
2021/07/13 14:18:25;;;;;;;1.75;0.70;;;;;;;;;;5019510;28;20087;-69
2021/07/13 14:20:53;;;;;;;2.60;1.35;;;;;;;;;;5002385;28;20037;-69
2021/07/13 14:23:20;;;;;;;2.67;0.65;;;;;;;;;;5030356;28;20044;-69
2021/07/13 14:25:48;;;;;;;1.67;0.75;;;;;;;;;;4995263;28;20035;-70
2021/07/13 14:28:15;;;;;;;1.92;0.80;;;;;;;;;;5027509;28;20034;-70
2021/07/13 14:30:42;;;;;;;2.25;0.52;;;;;;;;;;5013172;28;20026;-69
2021/07/13 14:33:09;;;;;;;1.75;0.50;;;;;;;;;;5017499;28;20092;-69
2021/07/13 14:35:37;;;;;;;1.08;0.50;;;;;;;;;;5004206;28;20029;-69
2021/07/13 14:38:04;;;;;;;2.13;0.70;;;;;;;;;;5019190;28;20045;-69
2021/07/13 14:40:31;;;;;;;2.25;0.90;;;;;;;;;;5014145;28;20052;-69
2021/07/13 14:43:01;;;;;;;2.97;0.50;;;;;;;;;;5019669;28;20367;-69
2021/07/13 14:45:29;;;;;;;2.55;0.70;;;;;;;;;;5029253;28;20013;-70
2021/07/13 14:47:56;;;;;;;1.20;0.52;;;;;;;;;;5030071;28;20026;-69
2021/07/13 14:50:23;;;;;;;1.65;0.55;;;;;;;;;;5030750;28;20018;-69
2021/07/13 14:52:50;;;;;;;2.15;0.60;;;;;;;;;;5011973;28;20052;-70
2021/07/13 14:55:17;;;;;;;4.28;1.02;;;;;;;;;;5028555;28;20018;-70